createdAt,value
2019-03-22T00:00:38.893Z,38.35
2019-03-22T00:03:07.282Z,34.45
2019-03-22T00:05:35.675Z,40.65
2019-03-22T00:08:03.999Z,36.98
2019-03-22T00:10:32.542Z,37.30
2019-03-22T00:13:00.869Z,38.98
2019-03-22T00:15:29.160Z,36.93
2019-03-22T00:17:57.466Z,34.80
2019-03-22T00:20:25.780Z,40.00
2019-03-22T00:22:54.380Z,39.80
2019-03-22T00:25:22.669Z,38.80
2019-03-22T00:27:50.967Z,44.23
2019-03-22T00:30:19.287Z,43.60
2019-03-22T00:32:47.596Z,44.18
2019-03-22T00:35:15.911Z,44.80
2019-03-22T00:37:44.586Z,42.93
2019-03-22T00:40:13.071Z,49.33
2019-03-22T00:42:41.625Z,46.45
2019-03-22T00:45:11.450Z,44.50
2019-03-22T00:47:39.777Z,41.80
2019-03-22T00:50:10.658Z,42.00
2019-03-22T00:52:38.969Z,43.30
2019-03-22T00:55:07.729Z,52.45
2019-03-22T00:57:36.094Z,55.30
2019-03-22T01:00:07.593Z,49.33
2019-03-22T01:02:35.899Z,50.92
2019-03-22T01:05:06.592Z,48.40
2019-03-22T01:07:35.090Z,51.58
2019-03-22T01:10:05.450Z,46.25
2019-03-22T01:12:33.827Z,47.40
2019-03-22T01:15:02.451Z,44.50
2019-03-22T01:17:30.779Z,44.75
2019-03-22T01:19:59.111Z,47.23
2019-03-22T01:22:27.431Z,44.03
2019-03-22T01:24:55.777Z,48.28
2019-03-22T01:27:24.149Z,44.00
2019-03-22T01:29:52.813Z,46.20
2019-03-22T01:32:21.121Z,44.70
2019-03-22T01:34:49.411Z,48.30
2019-03-22T01:37:17.721Z,45.30
2019-03-22T01:39:46.323Z,47.45
2019-03-22T01:42:14.642Z,47.33
2019-03-22T01:44:42.929Z,45.85
2019-03-22T01:47:11.566Z,50.63
2019-03-22T01:49:39.973Z,55.15
2019-03-22T01:52:08.283Z,47.27
2019-03-22T01:54:36.906Z,48.70
2019-03-22T01:57:05.232Z,46.00
2019-03-22T01:59:33.871Z,48.95
2019-03-22T02:02:02.441Z,44.73
2019-03-22T02:04:30.742Z,48.95
2019-03-22T02:06:59.312Z,46.95
2019-03-22T02:09:27.632Z,49.88
2019-03-22T02:11:55.932Z,44.45
2019-03-22T02:14:24.250Z,47.27
2019-03-22T02:16:52.648Z,57.80
2019-03-22T02:19:21.299Z,47.33
2019-03-22T02:21:49.602Z,47.98
2019-03-22T02:24:17.906Z,50.05
2019-03-22T02:26:46.469Z,49.63
2019-03-22T02:29:14.823Z,46.33
2019-03-22T02:31:43.400Z,46.67
2019-03-22T02:34:11.722Z,46.90
2019-03-22T02:36:40.014Z,45.90
2019-03-22T02:39:08.346Z,48.50
2019-03-22T02:41:36.643Z,47.43
2019-03-22T02:44:05.159Z,50.92
2019-03-22T02:46:33.777Z,49.90
2019-03-22T02:49:02.183Z,47.03
2019-03-22T02:51:30.526Z,52.23
2019-03-22T02:53:58.831Z,48.90
2019-03-22T02:56:27.143Z,45.85
2019-03-22T02:58:59.065Z,48.90
2019-03-22T03:01:25.468Z,52.58
2019-03-22T03:03:54.079Z,51.68
2019-03-22T03:06:22.492Z,52.08
2019-03-22T03:08:50.803Z,49.90
2019-03-22T03:11:19.102Z,49.08
2019-03-22T03:13:47.796Z,52.45
2019-03-22T03:16:16.125Z,50.30
2019-03-22T03:18:44.413Z,52.48
2019-03-22T03:21:12.734Z,50.83
2019-03-22T03:23:41.044Z,48.02
2019-03-22T03:26:09.473Z,49.48
2019-03-22T03:28:37.869Z,57.45
2019-03-22T03:31:06.406Z,55.90
2019-03-22T03:33:34.744Z,54.10
2019-03-22T03:36:03.067Z,49.25
2019-03-22T03:38:31.371Z,47.98
2019-03-22T03:40:59.953Z,51.18
2019-03-22T03:43:28.238Z,52.67
2019-03-22T03:45:56.645Z,49.65
2019-03-22T03:48:25.290Z,61.00
2019-03-22T03:50:53.996Z,55.83
2019-03-22T03:53:22.332Z,53.60
2019-03-22T03:55:50.660Z,53.58
2019-03-22T03:58:19.042Z,51.20
2019-03-22T04:00:47.329Z,59.50
2019-03-22T04:03:15.647Z,55.37
2019-03-22T04:05:43.966Z,51.60
2019-03-22T04:08:12.338Z,55.92
2019-03-22T04:10:40.668Z,54.00
2019-03-22T04:13:08.982Z,54.25
2019-03-22T04:15:37.278Z,53.63
2019-03-22T04:18:05.976Z,52.30
2019-03-22T04:20:34.274Z,50.45
2019-03-22T04:23:02.585Z,54.33
2019-03-22T04:25:30.927Z,53.78
2019-03-22T04:27:59.217Z,51.93
2019-03-22T04:30:27.591Z,57.90
2019-03-22T04:32:55.880Z,58.13
2019-03-22T04:35:24.184Z,56.83
2019-03-22T04:37:52.496Z,56.02
2019-03-22T04:40:25.430Z,55.03
2019-03-22T04:42:53.778Z,52.25
2019-03-22T04:45:22.375Z,54.65
2019-03-22T04:48:03.056Z,55.87
2019-03-22T04:50:33.838Z,51.50
2019-03-22T04:53:02.649Z,51.18
2019-03-22T04:55:31.686Z,50.23
2019-03-22T04:58:00.119Z,57.55
2019-03-22T05:00:28.580Z,54.18
2019-03-22T05:02:57.081Z,54.80
2019-03-22T05:05:26.349Z,54.70
2019-03-22T05:07:54.725Z,54.57
2019-03-22T05:10:23.922Z,61.73
2019-03-22T05:12:53.509Z,62.03
2019-03-22T05:15:22.245Z,56.73
2019-03-22T05:17:50.740Z,53.23
2019-03-22T05:20:20.623Z,59.13
2019-03-22T05:22:49.308Z,60.33
2019-03-22T05:25:18.379Z,63.20
2019-03-22T05:27:47.483Z,65.12
2019-03-22T05:30:49.531Z,69.95
2019-03-22T05:33:17.846Z,63.83
2019-03-22T05:35:46.140Z,67.12
2019-03-22T05:38:14.507Z,64.73
2019-03-22T05:40:42.830Z,65.10
2019-03-22T05:43:11.166Z,68.05
2019-03-22T05:45:39.811Z,76.40
2019-03-22T05:48:08.137Z,73.77
2019-03-22T05:50:36.771Z,76.97
2019-03-22T05:53:05.323Z,75.30
2019-03-22T05:55:33.939Z,75.22
2019-03-22T05:58:02.301Z,65.55
2019-03-22T06:00:30.630Z,67.60
2019-03-22T06:02:58.942Z,71.27
2019-03-22T06:05:27.246Z,67.65
2019-03-22T06:07:55.543Z,69.17
2019-03-22T06:10:23.845Z,63.08
2019-03-22T06:12:52.483Z,65.57
2019-03-22T06:15:20.782Z,60.15
2019-03-22T06:17:51.998Z,65.62
2019-03-22T06:20:19.155Z,65.12
2019-03-22T06:22:47.976Z,66.62
2019-03-22T06:25:16.270Z,60.13
2019-03-22T06:27:44.575Z,57.25
2019-03-22T06:30:12.939Z,65.92
2019-03-22T06:32:41.261Z,61.13
2019-03-22T06:35:09.593Z,58.25
2019-03-22T06:37:37.899Z,56.45
2019-03-22T06:40:07.616Z,61.13
2019-03-22T06:42:36.177Z,60.67
2019-03-22T06:45:06.166Z,58.58
2019-03-22T06:47:34.405Z,58.17
2019-03-22T06:50:02.896Z,58.73
2019-03-22T06:52:31.190Z,58.97
2019-03-22T06:54:59.851Z,57.67
2019-03-22T06:57:28.142Z,55.73
2019-03-22T07:00:05.996Z,53.95
2019-03-22T07:02:26.765Z,56.75
2019-03-22T07:04:55.333Z,50.60
2019-03-22T07:07:23.710Z,55.20
2019-03-22T07:09:52.042Z,52.03
2019-03-22T07:12:20.341Z,49.83
2019-03-22T07:14:48.638Z,50.58
2019-03-22T07:17:16.967Z,52.10
2019-03-22T07:19:45.277Z,46.90
2019-03-22T07:22:13.587Z,48.17
2019-03-22T07:24:41.971Z,46.28
2019-03-22T07:27:10.300Z,56.40
2019-03-22T07:29:38.872Z,48.25
2019-03-22T07:32:07.475Z,49.33
2019-03-22T07:34:36.050Z,52.00
2019-03-22T07:37:04.423Z,50.00
2019-03-22T07:39:32.745Z,51.03
2019-03-22T07:42:01.047Z,47.00
2019-03-22T07:44:29.362Z,49.35
2019-03-22T07:46:57.648Z,51.23
2019-03-22T07:49:25.976Z,52.08
2019-03-22T07:51:54.268Z,55.48
2019-03-22T07:54:22.863Z,47.98
2019-03-22T07:56:51.457Z,51.02
2019-03-22T07:59:19.766Z,44.95
2019-03-22T08:01:48.074Z,43.80
2019-03-22T08:04:16.391Z,50.05
2019-03-22T08:06:44.677Z,46.50
2019-03-22T08:09:13.004Z,44.95
2019-03-22T08:11:41.297Z,48.85
2019-03-22T08:14:09.612Z,47.23
2019-03-22T08:16:38.284Z,43.83
2019-03-22T08:19:06.591Z,40.20
2019-03-22T08:21:34.908Z,38.42
2019-03-22T08:24:03.520Z,40.75
2019-03-22T08:26:32.205Z,35.15
2019-03-22T08:29:00.530Z,34.40
2019-03-22T08:31:29.170Z,37.95
2019-03-22T08:33:57.482Z,38.55
2019-03-22T08:36:25.878Z,33.30
2019-03-22T08:38:54.162Z,40.60
2019-03-22T08:41:24.032Z,43.98
2019-03-22T08:43:52.802Z,34.23
2019-03-22T08:46:21.393Z,36.68
2019-03-22T08:48:49.796Z,31.17
2019-03-22T08:51:18.099Z,30.52
2019-03-22T08:53:55.153Z,29.73
2019-03-22T08:56:16.431Z,25.50
2019-03-22T08:58:44.753Z,30.00
2019-03-22T09:01:13.050Z,30.70
2019-03-22T09:03:41.385Z,28.00
2019-03-22T09:06:09.781Z,26.50
2019-03-22T09:08:38.166Z,31.23
2019-03-22T09:11:06.488Z,29.50
2019-03-22T09:13:34.856Z,32.40
2019-03-22T09:16:03.102Z,28.32
2019-03-22T09:18:31.404Z,26.48
2019-03-22T09:20:59.764Z,29.60
2019-03-22T09:23:28.411Z,23.65
2019-03-22T09:25:56.728Z,27.00
2019-03-22T09:28:25.241Z,27.80
2019-03-22T09:30:53.834Z,30.80
2019-03-22T09:33:22.136Z,26.93
2019-03-22T09:35:50.469Z,25.85
2019-03-22T09:38:18.824Z,24.52
2019-03-22T09:40:47.101Z,24.32
2019-03-22T09:43:15.407Z,24.27
2019-03-22T09:45:44.531Z,22.30
2019-03-22T09:48:12.981Z,18.95
2019-03-22T09:50:41.246Z,19.32
2019-03-22T09:53:09.560Z,18.90
2019-03-22T09:55:37.879Z,19.97
2019-03-22T09:58:06.165Z,19.47
2019-03-22T10:00:35.378Z,20.47
2019-03-22T10:03:04.451Z,21.15
2019-03-22T10:05:32.712Z,19.30
2019-03-22T10:08:01.900Z,18.20
2019-03-22T10:10:30.234Z,22.60
2019-03-22T10:12:58.544Z,22.82
2019-03-22T10:15:26.886Z,20.05
2019-03-22T10:17:55.175Z,18.52
2019-03-22T10:20:23.764Z,19.35
2019-03-22T10:22:52.098Z,20.13
2019-03-22T10:25:20.398Z,16.60
2019-03-22T10:27:49.013Z,18.33
2019-03-22T10:30:18.233Z,17.23
2019-03-22T10:32:46.546Z,17.87
2019-03-22T10:35:25.513Z,16.97
2019-03-22T10:37:45.204Z,17.92
2019-03-22T10:40:14.084Z,20.65
2019-03-22T10:42:42.373Z,14.93
2019-03-22T10:45:11.019Z,17.25
2019-03-22T10:47:39.559Z,13.53
2019-03-22T10:50:09.092Z,18.32
2019-03-22T10:52:37.423Z,15.85
2019-03-22T10:55:23.464Z,16.35
2019-03-22T10:57:40.303Z,13.43
2019-03-22T11:00:10.836Z,16.67
2019-03-22T11:02:39.146Z,18.62
2019-03-22T11:05:07.802Z,14.53
2019-03-22T11:07:36.118Z,14.87
2019-03-22T11:10:12.695Z,10.60
2019-03-22T11:12:40.675Z,11.37
2019-03-22T11:15:11.711Z,16.37
2019-03-22T11:17:40.266Z,14.50
2019-03-22T11:20:17.121Z,13.72
2019-03-22T11:22:45.518Z,11.48
2019-03-22T11:25:13.892Z,11.08
2019-03-22T11:27:42.214Z,12.70
2019-03-22T11:30:15.964Z,11.78
2019-03-22T11:32:44.647Z,10.85
2019-03-22T11:35:12.935Z,11.00
2019-03-22T11:37:41.605Z,12.15
2019-03-22T11:40:12.547Z,9.95
2019-03-22T11:42:41.227Z,13.90
2019-03-22T11:45:18.061Z,11.73
2019-03-22T11:47:46.448Z,12.77
2019-03-22T11:50:15.210Z,13.47
2019-03-22T11:52:43.499Z,12.05
2019-03-22T11:55:13.796Z,10.32
2019-03-22T11:57:42.124Z,11.08
2019-03-22T12:00:19.513Z,13.25
2019-03-22T12:02:47.857Z,12.53
2019-03-22T12:05:17.096Z,14.78
2019-03-22T12:07:45.401Z,11.20
2019-03-22T12:10:23.214Z,9.45
2019-03-22T12:12:51.507Z,11.30
2019-03-22T12:15:25.992Z,12.73
2019-03-22T12:17:54.305Z,12.68
2019-03-22T12:20:23.747Z,10.88
2019-03-22T12:22:52.546Z,10.70
2019-03-22T12:25:24.317Z,9.85
2019-03-22T12:27:52.643Z,11.70
2019-03-22T12:30:21.108Z,14.00
2019-03-22T12:32:49.414Z,12.20
2019-03-22T12:35:18.452Z,13.40
2019-03-22T12:37:46.860Z,12.70
2019-03-22T12:40:18.361Z,12.82
2019-03-22T12:42:46.685Z,10.25
2019-03-22T12:45:28.620Z,15.15
2019-03-22T12:47:57.020Z,11.15
2019-03-22T12:50:25.378Z,11.95
2019-03-22T12:52:53.857Z,12.98
2019-03-22T12:55:22.424Z,13.20
2019-03-22T12:57:50.892Z,15.70
2019-03-22T13:00:24.833Z,14.93
2019-03-22T13:02:53.780Z,10.55
2019-03-22T13:05:22.622Z,11.93
2019-03-22T13:07:51.262Z,13.05
2019-03-22T13:10:24.922Z,12.10
2019-03-22T13:12:53.717Z,12.60
2019-03-22T13:15:22.026Z,13.45
2019-03-22T13:17:50.701Z,10.10
2019-03-22T13:20:19.349Z,12.58
2019-03-22T13:22:47.654Z,11.03
2019-03-22T13:25:17.107Z,9.87
2019-03-22T13:27:45.431Z,12.17
2019-03-22T13:30:31.235Z,11.03
2019-03-22T13:32:59.692Z,8.10
2019-03-22T13:35:27.995Z,14.50
2019-03-22T13:37:56.761Z,11.60
2019-03-22T13:40:25.065Z,10.32
2019-03-22T13:42:53.550Z,8.90
2019-03-22T13:45:21.837Z,13.83
2019-03-22T13:47:50.166Z,8.78
2019-03-22T13:50:18.478Z,12.78
2019-03-22T13:52:46.886Z,11.40
2019-03-22T13:55:15.285Z,11.60
2019-03-22T13:57:43.878Z,12.03
2019-03-22T14:00:14.121Z,9.80
2019-03-22T14:02:42.412Z,9.28
2019-03-22T14:05:11.063Z,10.35
2019-03-22T14:07:39.655Z,14.95
2019-03-22T14:10:09.800Z,13.83
2019-03-22T14:12:38.451Z,14.33
2019-03-22T14:15:07.649Z,13.90
2019-03-22T14:17:35.951Z,21.05
2019-03-22T14:20:11.251Z,15.45
2019-03-22T14:22:37.286Z,12.13
2019-03-22T14:25:06.666Z,10.58
2019-03-22T14:27:34.957Z,29.07
2019-03-22T14:30:05.338Z,10.88
2019-03-22T14:32:33.724Z,17.40
2019-03-22T14:35:02.038Z,15.23
2019-03-22T14:37:30.347Z,12.00
2019-03-22T14:39:58.653Z,12.40
2019-03-22T14:42:26.957Z,12.30
2019-03-22T14:44:55.383Z,10.95
2019-03-22T14:47:23.696Z,10.88
2019-03-22T14:49:52.008Z,12.45
2019-03-22T14:52:20.603Z,11.33
2019-03-22T14:54:48.916Z,11.60
2019-03-22T14:57:17.596Z,14.68
2019-03-22T14:59:45.886Z,15.63
2019-03-22T15:02:14.197Z,15.50
2019-03-22T15:04:42.518Z,17.70
2019-03-22T15:07:19.377Z,12.82
2019-03-22T15:09:40.846Z,9.73
2019-03-22T15:12:09.482Z,11.45
2019-03-22T15:14:39.440Z,11.83
2019-03-22T15:17:25.579Z,12.30
2019-03-22T15:19:55.522Z,9.88
2019-03-22T15:22:41.797Z,12.25
2019-03-22T15:25:27.043Z,13.03
2019-03-22T15:27:59.643Z,13.40
2019-03-22T15:30:41.665Z,15.85
2019-03-22T15:33:34.330Z,17.50
2019-03-22T15:36:08.755Z,16.27
2019-03-22T15:38:41.909Z,15.58
2019-03-22T15:41:10.300Z,18.27
2019-03-22T15:43:38.590Z,26.77
2019-03-22T15:46:07.238Z,15.05
2019-03-22T15:48:35.539Z,13.70
2019-03-22T15:51:03.838Z,14.37
2019-03-22T15:53:32.164Z,13.90
2019-03-22T15:56:03.790Z,19.10
2019-03-22T15:58:32.111Z,15.65
2019-03-22T16:01:00.415Z,20.13
2019-03-22T16:03:28.743Z,15.40
2019-03-22T16:05:57.072Z,13.30
2019-03-22T16:08:25.473Z,18.05
2019-03-22T16:10:53.780Z,12.78
2019-03-22T16:13:22.102Z,15.13
2019-03-22T16:15:50.435Z,12.80
2019-03-22T16:18:20.329Z,15.23
2019-03-22T16:20:48.733Z,13.98
2019-03-22T16:23:17.053Z,15.60
2019-03-22T16:25:45.350Z,13.80
2019-03-22T16:28:13.817Z,11.90
2019-03-22T16:30:42.463Z,13.40
2019-03-22T16:33:10.751Z,12.15
2019-03-22T16:35:39.170Z,11.00
2019-03-22T16:38:07.457Z,11.57
2019-03-22T16:40:35.784Z,14.30
2019-03-22T16:43:04.156Z,12.85
2019-03-22T16:45:42.463Z,13.50
2019-03-22T16:48:10.755Z,11.85
2019-03-22T16:50:39.165Z,14.60
2019-03-22T16:53:07.467Z,12.33
2019-03-22T16:55:35.775Z,13.40
2019-03-22T16:58:04.509Z,12.00
2019-03-22T17:00:32.814Z,13.85
2019-03-22T17:03:01.142Z,10.03
2019-03-22T17:05:29.461Z,14.23
2019-03-22T17:07:58.077Z,11.40
2019-03-22T17:10:26.625Z,16.77
2019-03-22T17:12:54.993Z,14.40
2019-03-22T17:15:23.281Z,14.63
2019-03-22T17:17:51.618Z,16.70
2019-03-22T17:20:19.917Z,16.27
2019-03-22T17:22:48.226Z,30.55
2019-03-22T17:25:16.531Z,25.77
2019-03-22T17:27:44.962Z,18.85
2019-03-22T17:30:14.197Z,21.85
2019-03-22T17:32:42.532Z,22.32
2019-03-22T17:35:10.819Z,24.00
2019-03-22T17:37:39.147Z,18.77
2019-03-22T17:40:08.179Z,20.53
2019-03-22T17:42:36.543Z,16.65
2019-03-22T17:45:11.027Z,28.70
2019-03-22T17:47:39.430Z,20.02
2019-03-22T17:50:09.187Z,29.15
2019-03-22T17:52:37.477Z,21.40
2019-03-22T17:55:09.760Z,22.27
2019-03-22T17:57:38.055Z,26.30
2019-03-22T18:00:09.528Z,21.02
2019-03-22T18:02:37.824Z,22.17
2019-03-22T18:05:08.468Z,26.30
2019-03-22T18:07:37.037Z,21.35
2019-03-22T18:10:10.249Z,21.77
2019-03-22T18:12:38.612Z,19.23
2019-03-22T18:15:11.182Z,25.32
2019-03-22T18:17:39.583Z,29.63
2019-03-22T18:20:15.439Z,33.02
2019-03-22T18:22:43.742Z,33.20
2019-03-22T18:25:13.129Z,25.75
2019-03-22T18:27:41.450Z,25.70
2019-03-22T18:30:13.779Z,28.25
2019-03-22T18:32:42.075Z,24.70
2019-03-22T18:35:10.576Z,25.95
2019-03-22T18:37:39.230Z,28.92
2019-03-22T18:40:10.742Z,29.90
2019-03-22T18:42:39.086Z,30.05
2019-03-22T18:45:10.243Z,25.80
2019-03-22T18:47:38.548Z,25.77
2019-03-22T18:50:08.828Z,24.53
2019-03-22T18:52:37.390Z,28.27
2019-03-22T18:55:07.181Z,23.62
2019-03-22T18:57:36.355Z,25.50
2019-03-22T19:00:13.356Z,24.70
2019-03-22T19:02:41.703Z,26.50
2019-03-22T19:05:10.176Z,27.80
2019-03-22T19:07:38.854Z,26.75
2019-03-22T19:10:13.447Z,27.93
2019-03-22T19:12:41.761Z,27.40
2019-03-22T19:15:14.787Z,29.15
2019-03-22T19:17:43.092Z,29.67
2019-03-22T19:20:12.858Z,30.02
2019-03-22T19:22:41.150Z,30.97
2019-03-22T19:25:09.841Z,27.22
2019-03-22T19:27:38.441Z,32.90
2019-03-22T19:30:12.596Z,30.23
2019-03-22T19:32:40.886Z,30.60
2019-03-22T19:35:09.683Z,28.02
2019-03-22T19:37:37.985Z,36.23
2019-03-22T19:40:11.929Z,32.63
2019-03-22T19:42:40.257Z,30.80
2019-03-22T19:45:10.413Z,38.02
2019-03-22T19:47:38.721Z,39.35
2019-03-22T19:50:09.493Z,39.35
2019-03-22T19:52:37.833Z,45.47
2019-03-22T19:55:08.567Z,42.10
2019-03-22T19:57:37.549Z,42.50
2019-03-22T20:00:08.867Z,39.90
2019-03-22T20:02:37.172Z,41.88
2019-03-22T20:05:07.559Z,43.08
2019-03-22T20:07:35.854Z,39.60
2019-03-22T20:10:07.355Z,46.65
2019-03-22T20:12:35.667Z,30.40
2019-03-22T20:15:05.524Z,27.50
2019-03-22T20:17:34.196Z,21.93
2019-03-22T20:20:02.527Z,22.30
2019-03-22T20:22:30.866Z,25.27
2019-03-22T20:24:59.197Z,30.45
2019-03-22T20:27:27.665Z,23.50
2019-03-22T20:29:55.996Z,23.83
2019-03-22T20:32:24.317Z,27.32
2019-03-22T20:34:52.624Z,28.62
2019-03-22T20:37:20.964Z,22.22
2019-03-22T20:39:49.271Z,23.00
2019-03-22T20:42:17.593Z,23.80
2019-03-22T20:44:45.888Z,25.02
2019-03-22T20:47:14.210Z,22.80
2019-03-22T20:49:42.508Z,23.33
2019-03-22T20:52:10.841Z,22.87
2019-03-22T20:54:39.163Z,24.00
2019-03-22T20:57:07.475Z,28.17
2019-03-22T20:59:35.799Z,26.80
2019-03-22T21:02:04.099Z,27.02
2019-03-22T21:04:32.427Z,20.35
2019-03-22T21:07:00.765Z,24.05
2019-03-22T21:09:44.524Z,26.27
2019-03-22T21:12:12.820Z,26.33
2019-03-22T21:14:41.157Z,26.27
2019-03-22T21:17:09.464Z,24.87
2019-03-22T21:19:38.093Z,24.07
2019-03-22T21:22:06.672Z,18.90
2019-03-22T21:24:34.999Z,21.23
2019-03-22T21:27:03.313Z,19.07
2019-03-22T21:29:31.620Z,19.00
2019-03-22T21:31:59.985Z,19.30
2019-03-22T21:34:28.282Z,18.60
2019-03-22T21:36:56.946Z,18.80
2019-03-22T21:39:25.540Z,19.27
2019-03-22T21:41:53.856Z,16.57
2019-03-22T21:44:22.180Z,19.70
2019-03-22T21:46:50.488Z,61.70
2019-03-22T21:49:18.792Z,15.87
2019-03-22T21:51:47.100Z,17.77
2019-03-22T21:54:15.427Z,23.62
2019-03-22T21:56:43.791Z,20.10
2019-03-22T21:59:12.448Z,18.77
2019-03-22T22:01:41.050Z,18.80
2019-03-22T22:04:09.359Z,20.00
2019-03-22T22:06:37.666Z,24.25
2019-03-22T22:09:06.745Z,21.23
2019-03-22T22:11:35.044Z,20.55
2019-03-22T22:14:03.393Z,24.98
2019-03-22T22:16:32.020Z,24.18
2019-03-22T22:19:00.341Z,27.50
2019-03-22T22:21:28.637Z,23.07
2019-03-22T22:23:56.971Z,26.15
2019-03-22T22:26:25.274Z,20.72
2019-03-22T22:28:53.565Z,18.82
2019-03-22T22:31:21.904Z,20.08
2019-03-22T22:33:50.484Z,16.02
2019-03-22T22:36:19.228Z,15.70
2019-03-22T22:38:48.037Z,17.82
2019-03-22T22:41:16.943Z,25.60
2019-03-22T22:43:45.516Z,18.52
2019-03-22T22:46:14.106Z,17.42
2019-03-22T22:48:42.421Z,13.30
2019-03-22T22:51:10.767Z,16.85
2019-03-22T22:53:39.334Z,18.60
2019-03-22T22:56:07.931Z,14.58
2019-03-22T22:58:36.256Z,14.07
2019-03-22T23:01:04.718Z,17.45
2019-03-22T23:03:33.022Z,15.00
2019-03-22T23:06:09.078Z,15.90
2019-03-22T23:08:31.385Z,16.95
2019-03-22T23:10:59.681Z,17.55
2019-03-22T23:13:28.326Z,16.50
2019-03-22T23:15:56.649Z,17.62
2019-03-22T23:18:24.984Z,18.80
2019-03-22T23:20:53.397Z,15.53
2019-03-22T23:23:21.724Z,16.65
2019-03-22T23:25:50.306Z,16.07
2019-03-22T23:28:18.624Z,15.67
2019-03-22T23:30:46.921Z,13.90
2019-03-22T23:33:15.665Z,17.00
2019-03-22T23:35:43.948Z,16.60
2019-03-22T23:38:12.258Z,14.35
2019-03-22T23:40:40.537Z,14.07
2019-03-22T23:43:09.086Z,13.70
2019-03-22T23:45:37.439Z,18.57
2019-03-22T23:48:06.024Z,19.17
2019-03-22T23:50:34.616Z,17.50
2019-03-22T23:53:02.907Z,17.10
2019-03-22T23:55:31.228Z,15.75
2019-03-22T23:57:59.551Z,15.43
